Terminal Aerodrome Forecast
Issued by NWS Sterling, VA

Home | Current Version | Previous Version | Text Only | Print | Product List | Glossary On
Versions: 1 2 3 4 5 6 7 8 9 10 11 12 13 14 15 16 17 18 19 20 21 22 23 24
000
FTUS41 KLWX 241700
TAFBWI
TAF
KBWI 241734Z 2418/2524 31013G20KT P6SM FEW150 FEW250
     FM242300 30008KT P6SM FEW150 SCT200
     FM251000 30004KT P6SM FEW200
     FM251700 27008KT P6SM FEW250
     FM252100 26010KT P6SM FEW040=

USA.gov is the U.S. government's official web portal to all federal, state and local government web resources and services.